sensor_id;sensor_type;location;lat;lon;timestamp;P1;durP1;ratioP1;P2;durP2;ratioP2
22121;SDS011;11227;53.046;10.512;2022-12-10T00:01:05;61.00;;;31.33;;
22121;SDS011;11227;53.046;10.512;2022-12-10T00:05:12;58.33;;;31.42;;
22121;SDS011;11227;53.046;10.512;2022-12-10T00:09:15;60.85;;;30.88;;
22121;SDS011;11227;53.046;10.512;2022-12-10T00:13:18;59.53;;;30.63;;
22121;SDS011;11227;53.046;10.512;2022-12-10T00:17:20;62.05;;;32.17;;
22121;SDS011;11227;53.046;10.512;2022-12-10T00:21:23;58.00;;;31.13;;
22121;SDS011;11227;53.046;10.512;2022-12-10T00:25:27;60.05;;;30.42;;
22121;SDS011;11227;53.046;10.512;2022-12-10T00:29:28;61.30;;;28.95;;
22121;SDS011;11227;53.046;10.512;2022-12-10T00:33:30;56.10;;;29.75;;
22121;SDS011;11227;53.046;10.512;2022-12-10T00:37:32;54.83;;;28.88;;
22121;SDS011;11227;53.046;10.512;2022-12-10T00:41:34;57.15;;;29.98;;
22121;SDS011;11227;53.046;10.512;2022-12-10T00:45:35;55.67;;;28.98;;
22121;SDS011;11227;53.046;10.512;2022-12-10T00:49:37;56.13;;;29.05;;
22121;SDS011;11227;53.046;10.512;2022-12-10T00:53:39;54.08;;;28.95;;
22121;SDS011;11227;53.046;10.512;2022-12-10T00:57:42;58.33;;;29.13;;
22121;SDS011;11227;53.046;10.512;2022-12-10T01:01:43;51.67;;;28.45;;
22121;SDS011;11227;53.046;10.512;2022-12-10T01:05:45;53.17;;;26.02;;
22121;SDS011;11227;53.046;10.512;2022-12-10T01:09:47;52.50;;;27.42;;
22121;SDS011;11227;53.046;10.512;2022-12-10T01:13:49;48.13;;;25.92;;
22121;SDS011;11227;53.046;10.512;2022-12-10T01:17:52;51.28;;;26.38;;
22121;SDS011;11227;53.046;10.512;2022-12-10T01:21:54;47.08;;;25.75;;
22121;SDS011;11227;53.046;10.512;2022-12-10T01:25:58;56.72;;;26.65;;
22121;SDS011;11227;53.046;10.512;2022-12-10T01:30:01;50.00;;;26.42;;
22121;SDS011;11227;53.046;10.512;2022-12-10T01:34:04;46.38;;;25.58;;
22121;SDS011;11227;53.046;10.512;2022-12-10T01:38:06;46.20;;;25.25;;
22121;SDS011;11227;53.046;10.512;2022-12-10T01:42:09;45.60;;;24.77;;
22121;SDS011;11227;53.046;10.512;2022-12-10T01:46:14;45.53;;;22.75;;
22121;SDS011;11227;53.046;10.512;2022-12-10T01:50:16;44.28;;;24.17;;
22121;SDS011;11227;53.046;10.512;2022-12-10T01:54:20;42.85;;;24.00;;
22121;SDS011;11227;53.046;10.512;2022-12-10T01:58:29;47.95;;;23.35;;
22121;SDS011;11227;53.046;10.512;2022-12-10T02:15:16;43.75;;;23.55;;
22121;SDS011;11227;53.046;10.512;2022-12-10T02:19:28;40.60;;;21.98;;
22121;SDS011;11227;53.046;10.512;2022-12-10T02:23:41;43.22;;;22.73;;
22121;SDS011;11227;53.046;10.512;2022-12-10T02:32:22;47.42;;;22.50;;
22121;SDS011;11227;53.046;10.512;2022-12-10T02:36:29;37.03;;;20.52;;
22121;SDS011;11227;53.046;10.512;2022-12-10T02:40:34;35.03;;;19.45;;
22121;SDS011;11227;53.046;10.512;2022-12-10T02:44:38;36.15;;;19.42;;
22121;SDS011;11227;53.046;10.512;2022-12-10T02:48:43;36.97;;;20.90;;
22121;SDS011;11227;53.046;10.512;2022-12-10T02:52:48;35.92;;;19.63;;
22121;SDS011;11227;53.046;10.512;2022-12-10T02:56:52;39.00;;;20.33;;
22121;SDS011;11227;53.046;10.512;2022-12-10T03:01:07;37.22;;;19.58;;
22121;SDS011;11227;53.046;10.512;2022-12-10T03:10:32;34.72;;;20.05;;
22121;SDS011;11227;53.046;10.512;2022-12-10T03:14:18;38.10;;;19.92;;
22121;SDS011;11227;53.046;10.512;2022-12-10T03:18:31;37.35;;;19.75;;
22121;SDS011;11227;53.046;10.512;2022-12-10T03:22:36;38.53;;;18.58;;
22121;SDS011;11227;53.046;10.512;2022-12-10T03:26:41;31.38;;;17.48;;
22121;SDS011;11227;53.046;10.512;2022-12-10T03:30:46;36.85;;;18.48;;
22121;SDS011;11227;53.046;10.512;2022-12-10T03:34:50;29.08;;;16.73;;
22121;SDS011;11227;53.046;10.512;2022-12-10T03:38:54;37.92;;;18.08;;
22121;SDS011;11227;53.046;10.512;2022-12-10T03:42:56;29.70;;;16.83;;
22121;SDS011;11227;53.046;10.512;2022-12-10T03:46:58;31.63;;;17.20;;
22121;SDS011;11227;53.046;10.512;2022-12-10T03:51:00;32.42;;;16.80;;
22121;SDS011;11227;53.046;10.512;2022-12-10T03:55:02;31.15;;;17.73;;
22121;SDS011;11227;53.046;10.512;2022-12-10T03:59:04;30.80;;;16.70;;
22121;SDS011;11227;53.046;10.512;2022-12-10T04:03:06;35.00;;;18.08;;
22121;SDS011;11227;53.046;10.512;2022-12-10T04:07:08;32.42;;;16.85;;
22121;SDS011;11227;53.046;10.512;2022-12-10T04:11:10;28.83;;;15.57;;
22121;SDS011;11227;53.046;10.512;2022-12-10T04:15:13;29.88;;;16.30;;
22121;SDS011;11227;53.046;10.512;2022-12-10T04:19:34;25.98;;;15.50;;
22121;SDS011;11227;53.046;10.512;2022-12-10T04:23:35;27.48;;;15.52;;
22121;SDS011;11227;53.046;10.512;2022-12-10T04:27:56;27.83;;;15.15;;
22121;SDS011;11227;53.046;10.512;2022-12-10T04:31:58;25.15;;;14.77;;
22121;SDS011;11227;53.046;10.512;2022-12-10T04:36:00;29.60;;;15.60;;
22121;SDS011;11227;53.046;10.512;2022-12-10T04:40:02;28.40;;;15.35;;
22121;SDS011;11227;53.046;10.512;2022-12-10T04:44:04;24.05;;;14.15;;
22121;SDS011;11227;53.046;10.512;2022-12-10T04:48:06;26.17;;;14.15;;
22121;SDS011;11227;53.046;10.512;2022-12-10T04:52:08;28.17;;;15.00;;
22121;SDS011;11227;53.046;10.512;2022-12-10T04:56:12;27.58;;;14.77;;
22121;SDS011;11227;53.046;10.512;2022-12-10T05:00:14;25.48;;;13.35;;
22121;SDS011;11227;53.046;10.512;2022-12-10T05:04:16;28.27;;;14.00;;
22121;SDS011;11227;53.046;10.512;2022-12-10T05:08:19;22.85;;;13.27;;
22121;SDS011;11227;53.046;10.512;2022-12-10T05:12:21;25.55;;;13.95;;
22121;SDS011;11227;53.046;10.512;2022-12-10T05:16:23;23.58;;;13.40;;
22121;SDS011;11227;53.046;10.512;2022-12-10T05:20:25;24.02;;;12.95;;
22121;SDS011;11227;53.046;10.512;2022-12-10T05:24:27;22.00;;;12.90;;
22121;SDS011;11227;53.046;10.512;2022-12-10T05:28:29;22.30;;;12.82;;
22121;SDS011;11227;53.046;10.512;2022-12-10T05:32:33;21.52;;;12.52;;
22121;SDS011;11227;53.046;10.512;2022-12-10T05:36:35;24.35;;;11.80;;
22121;SDS011;11227;53.046;10.512;2022-12-10T05:40:37;23.35;;;13.02;;
22121;SDS011;11227;53.046;10.512;2022-12-10T05:44:40;21.30;;;12.25;;
22121;SDS011;11227;53.046;10.512;2022-12-10T05:48:42;22.20;;;12.60;;
22121;SDS011;11227;53.046;10.512;2022-12-10T05:52:44;20.80;;;13.15;;
22121;SDS011;11227;53.046;10.512;2022-12-10T05:56:46;18.92;;;11.23;;
22121;SDS011;11227;53.046;10.512;2022-12-10T06:00:47;24.35;;;12.82;;
22121;SDS011;11227;53.046;10.512;2022-12-10T06:04:49;21.45;;;11.98;;
22121;SDS011;11227;53.046;10.512;2022-12-10T06:08:51;21.08;;;12.27;;
22121;SDS011;11227;53.046;10.512;2022-12-10T06:12:53;17.88;;;11.18;;
22121;SDS011;11227;53.046;10.512;2022-12-10T06:16:54;18.00;;;11.60;;
22121;SDS011;11227;53.046;10.512;2022-12-10T06:20:56;18.00;;;11.05;;
22121;SDS011;11227;53.046;10.512;2022-12-10T06:24:58;17.45;;;10.25;;
22121;SDS011;11227;53.046;10.512;2022-12-10T06:29:00;19.10;;;11.13;;
22121;SDS011;11227;53.046;10.512;2022-12-10T06:33:01;18.67;;;10.70;;
22121;SDS011;11227;53.046;10.512;2022-12-10T06:37:03;22.35;;;11.45;;
22121;SDS011;11227;53.046;10.512;2022-12-10T06:41:06;16.48;;;9.80;;
22121;SDS011;11227;53.046;10.512;2022-12-10T06:45:09;18.10;;;10.02;;
22121;SDS011;11227;53.046;10.512;2022-12-10T06:49:11;18.80;;;11.05;;
22121;SDS011;11227;53.046;10.512;2022-12-10T06:53:13;17.90;;;10.85;;
22121;SDS011;11227;53.046;10.512;2022-12-10T06:57:15;16.90;;;9.77;;
22121;SDS011;11227;53.046;10.512;2022-12-10T07:01:21;15.95;;;9.75;;
22121;SDS011;11227;53.046;10.512;2022-12-10T07:05:27;18.45;;;9.95;;
22121;SDS011;11227;53.046;10.512;2022-12-10T07:09:28;15.07;;;9.55;;
22121;SDS011;11227;53.046;10.512;2022-12-10T07:13:30;18.48;;;10.32;;
22121;SDS011;11227;53.046;10.512;2022-12-10T07:17:32;17.70;;;9.18;;
22121;SDS011;11227;53.046;10.512;2022-12-10T07:21:35;14.82;;;9.25;;
22121;SDS011;11227;53.046;10.512;2022-12-10T07:25:37;17.45;;;10.13;;
22121;SDS011;11227;53.046;10.512;2022-12-10T07:29:39;15.65;;;9.35;;
22121;SDS011;11227;53.046;10.512;2022-12-10T07:33:40;15.18;;;9.15;;
22121;SDS011;11227;53.046;10.512;2022-12-10T07:37:42;13.15;;;8.48;;
22121;SDS011;11227;53.046;10.512;2022-12-10T07:41:48;18.65;;;9.55;;
22121;SDS011;11227;53.046;10.512;2022-12-10T07:45:52;15.95;;;9.48;;
22121;SDS011;11227;53.046;10.512;2022-12-10T07:49:53;15.48;;;9.32;;
22121;SDS011;11227;53.046;10.512;2022-12-10T07:53:55;15.55;;;8.38;;
22121;SDS011;11227;53.046;10.512;2022-12-10T07:57:57;14.85;;;8.90;;
22121;SDS011;11227;53.046;10.512;2022-12-10T08:01:59;14.73;;;8.75;;
22121;SDS011;11227;53.046;10.512;2022-12-10T08:06:09;15.98;;;8.10;;
22121;SDS011;11227;53.046;10.512;2022-12-10T08:10:13;15.50;;;8.57;;
22121;SDS011;11227;53.046;10.512;2022-12-10T08:14:15;13.13;;;7.80;;
22121;SDS011;11227;53.046;10.512;2022-12-10T08:18:17;12.55;;;7.88;;
22121;SDS011;11227;53.046;10.512;2022-12-10T08:22:18;16.00;;;8.60;;
22121;SDS011;11227;53.046;10.512;2022-12-10T08:26:21;11.40;;;7.45;;
22121;SDS011;11227;53.046;10.512;2022-12-10T08:30:25;13.27;;;7.93;;
22121;SDS011;11227;53.046;10.512;2022-12-10T08:34:27;11.38;;;7.40;;
22121;SDS011;11227;53.046;10.512;2022-12-10T08:38:29;15.80;;;7.45;;
22121;SDS011;11227;53.046;10.512;2022-12-10T08:42:31;13.25;;;7.68;;
22121;SDS011;11227;53.046;10.512;2022-12-10T08:46:33;17.55;;;7.63;;
22121;SDS011;11227;53.046;10.512;2022-12-10T08:50:36;14.15;;;7.30;;
22121;SDS011;11227;53.046;10.512;2022-12-10T08:54:38;16.42;;;8.48;;
22121;SDS011;11227;53.046;10.512;2022-12-10T08:58:40;11.32;;;7.57;;
22121;SDS011;11227;53.046;10.512;2022-12-10T09:02:42;14.13;;;7.13;;
22121;SDS011;11227;53.046;10.512;2022-12-10T09:06:44;10.02;;;6.55;;
22121;SDS011;11227;53.046;10.512;2022-12-10T09:10:45;13.52;;;7.40;;
22121;SDS011;11227;53.046;10.512;2022-12-10T09:14:47;12.00;;;7.35;;
22121;SDS011;11227;53.046;10.512;2022-12-10T09:18:48;12.40;;;7.22;;
22121;SDS011;11227;53.046;10.512;2022-12-10T09:22:50;13.88;;;7.10;;
22121;SDS011;11227;53.046;10.512;2022-12-10T09:26:53;14.10;;;7.20;;
22121;SDS011;11227;53.046;10.512;2022-12-10T09:30:58;14.68;;;7.50;;
22121;SDS011;11227;53.046;10.512;2022-12-10T09:39:03;15.07;;;7.40;;
22121;SDS011;11227;53.046;10.512;2022-12-10T09:43:09;13.48;;;7.20;;
22121;SDS011;11227;53.046;10.512;2022-12-10T09:47:34;13.82;;;7.68;;
22121;SDS011;11227;53.046;10.512;2022-12-10T09:51:41;16.33;;;7.77;;
22121;SDS011;11227;53.046;10.512;2022-12-10T09:55:44;12.70;;;7.38;;
22121;SDS011;11227;53.046;10.512;2022-12-10T09:59:48;17.70;;;8.23;;
22121;SDS011;11227;53.046;10.512;2022-12-10T10:03:52;15.52;;;8.13;;
22121;SDS011;11227;53.046;10.512;2022-12-10T10:07:58;13.40;;;7.35;;
22121;SDS011;11227;53.046;10.512;2022-12-10T10:12:12;14.65;;;7.00;;
22121;SDS011;11227;53.046;10.512;2022-12-10T10:20:20;15.10;;;6.85;;
22121;SDS011;11227;53.046;10.512;2022-12-10T10:24:22;18.02;;;7.05;;
22121;SDS011;11227;53.046;10.512;2022-12-10T10:28:44;13.50;;;7.18;;
22121;SDS011;11227;53.046;10.512;2022-12-10T10:32:48;14.48;;;6.70;;
22121;SDS011;11227;53.046;10.512;2022-12-10T10:36:57;17.13;;;7.22;;
22121;SDS011;11227;53.046;10.512;2022-12-10T10:41:02;18.25;;;7.38;;
22121;SDS011;11227;53.046;10.512;2022-12-10T10:45:09;13.65;;;7.13;;
22121;SDS011;11227;53.046;10.512;2022-12-10T10:49:49;14.68;;;7.57;;
22121;SDS011;11227;53.046;10.512;2022-12-10T10:53:52;14.98;;;7.18;;
22121;SDS011;11227;53.046;10.512;2022-12-10T10:57:55;14.55;;;8.15;;
22121;SDS011;11227;53.046;10.512;2022-12-10T11:02:19;16.70;;;7.40;;
22121;SDS011;11227;53.046;10.512;2022-12-10T11:06:25;16.23;;;6.85;;
22121;SDS011;11227;53.046;10.512;2022-12-10T11:10:27;14.35;;;7.10;;
22121;SDS011;11227;53.046;10.512;2022-12-10T11:14:40;14.70;;;6.80;;
22121;SDS011;11227;53.046;10.512;2022-12-10T11:23:09;14.80;;;6.95;;
22121;SDS011;11227;53.046;10.512;2022-12-10T11:27:14;14.70;;;7.35;;
22121;SDS011;11227;53.046;10.512;2022-12-10T11:31:43;16.13;;;7.05;;
22121;SDS011;11227;53.046;10.512;2022-12-10T11:44:25;14.50;;;7.35;;
22121;SDS011;11227;53.046;10.512;2022-12-10T11:48:50;12.95;;;6.72;;
22121;SDS011;11227;53.046;10.512;2022-12-10T12:06:50;13.00;;;6.68;;
22121;SDS011;11227;53.046;10.512;2022-12-10T12:11:02;11.82;;;6.20;;
22121;SDS011;11227;53.046;10.512;2022-12-10T12:15:43;11.82;;;6.63;;
22121;SDS011;11227;53.046;10.512;2022-12-10T12:19:44;35.78;;;7.47;;
22121;SDS011;11227;53.046;10.512;2022-12-10T12:23:58;34.00;;;6.90;;
22121;SDS011;11227;53.046;10.512;2022-12-10T12:28:11;20.25;;;6.00;;
22121;SDS011;11227;53.046;10.512;2022-12-10T12:32:22;11.40;;;4.75;;
22121;SDS011;11227;53.046;10.512;2022-12-10T12:36:29;12.43;;;5.22;;
22121;SDS011;11227;53.046;10.512;2022-12-10T12:40:43;9.23;;;4.70;;
22121;SDS011;11227;53.046;10.512;2022-12-10T12:49:33;9.77;;;4.80;;
22121;SDS011;11227;53.046;10.512;2022-12-10T12:57:41;10.82;;;4.88;;
22121;SDS011;11227;53.046;10.512;2022-12-10T13:01:52;10.90;;;4.80;;
22121;SDS011;11227;53.046;10.512;2022-12-10T13:06:15;10.23;;;5.10;;
22121;SDS011;11227;53.046;10.512;2022-12-10T13:10:26;7.15;;;3.95;;
22121;SDS011;11227;53.046;10.512;2022-12-10T13:14:29;7.53;;;4.25;;
22121;SDS011;11227;53.046;10.512;2022-12-10T13:18:34;11.07;;;4.45;;
22121;SDS011;11227;53.046;10.512;2022-12-10T13:27:01;8.93;;;4.10;;
22121;SDS011;11227;53.046;10.512;2022-12-10T13:35:22;8.93;;;4.87;;
22121;SDS011;11227;53.046;10.512;2022-12-10T13:39:45;8.25;;;4.82;;
22121;SDS011;11227;53.046;10.512;2022-12-10T13:43:54;8.13;;;4.18;;
22121;SDS011;11227;53.046;10.512;2022-12-10T13:52:30;7.15;;;4.40;;
22121;SDS011;11227;53.046;10.512;2022-12-10T14:06:00;9.10;;;4.63;;
22121;SDS011;11227;53.046;10.512;2022-12-10T14:10:16;9.55;;;4.55;;
22121;SDS011;11227;53.046;10.512;2022-12-10T14:14:25;10.15;;;4.82;;
22121;SDS011;11227;53.046;10.512;2022-12-10T14:18:36;18.67;;;8.68;;
22121;SDS011;11227;53.046;10.512;2022-12-10T14:22:44;21.05;;;9.27;;
22121;SDS011;11227;53.046;10.512;2022-12-10T14:26:54;20.42;;;10.13;;
22121;SDS011;11227;53.046;10.512;2022-12-10T14:30:58;19.52;;;9.07;;
22121;SDS011;11227;53.046;10.512;2022-12-10T14:35:01;20.35;;;8.90;;
22121;SDS011;11227;53.046;10.512;2022-12-10T14:39:11;24.25;;;9.75;;
22121;SDS011;11227;53.046;10.512;2022-12-10T14:43:36;16.45;;;8.80;;
22121;SDS011;11227;53.046;10.512;2022-12-10T14:47:42;17.08;;;8.38;;
22121;SDS011;11227;53.046;10.512;2022-12-10T14:51:49;16.20;;;7.88;;
22121;SDS011;11227;53.046;10.512;2022-12-10T14:55:52;16.42;;;8.18;;
22121;SDS011;11227;53.046;10.512;2022-12-10T15:00:05;18.92;;;9.02;;
22121;SDS011;11227;53.046;10.512;2022-12-10T15:04:17;14.25;;;8.32;;
22121;SDS011;11227;53.046;10.512;2022-12-10T15:08:26;13.90;;;7.47;;
22121;SDS011;11227;53.046;10.512;2022-12-10T15:12:37;14.20;;;7.65;;
22121;SDS011;11227;53.046;10.512;2022-12-10T15:16:44;15.45;;;7.50;;
22121;SDS011;11227;53.046;10.512;2022-12-10T15:20:48;11.77;;;6.97;;
22121;SDS011;11227;53.046;10.512;2022-12-10T15:24:54;14.48;;;7.10;;
22121;SDS011;11227;53.046;10.512;2022-12-10T15:29:28;11.18;;;6.43;;
22121;SDS011;11227;53.046;10.512;2022-12-10T15:33:36;12.60;;;6.57;;
22121;SDS011;11227;53.046;10.512;2022-12-10T15:37:41;12.65;;;6.03;;
22121;SDS011;11227;53.046;10.512;2022-12-10T15:41:47;11.32;;;6.25;;
22121;SDS011;11227;53.046;10.512;2022-12-10T15:45:50;9.75;;;5.65;;
22121;SDS011;11227;53.046;10.512;2022-12-10T15:49:53;12.15;;;5.95;;
22121;SDS011;11227;53.046;10.512;2022-12-10T15:53:56;16.83;;;6.63;;
22121;SDS011;11227;53.046;10.512;2022-12-10T15:57:58;10.90;;;5.72;;
22121;SDS011;11227;53.046;10.512;2022-12-10T16:02:00;12.05;;;5.82;;
22121;SDS011;11227;53.046;10.512;2022-12-10T16:06:03;10.55;;;5.85;;
22121;SDS011;11227;53.046;10.512;2022-12-10T16:10:05;11.23;;;5.65;;
22121;SDS011;11227;53.046;10.512;2022-12-10T16:14:08;11.70;;;6.35;;
22121;SDS011;11227;53.046;10.512;2022-12-10T16:18:10;9.85;;;5.40;;
22121;SDS011;11227;53.046;10.512;2022-12-10T16:22:12;11.65;;;5.63;;
22121;SDS011;11227;53.046;10.512;2022-12-10T16:26:18;9.02;;;5.50;;
22121;SDS011;11227;53.046;10.512;2022-12-10T16:30:23;10.13;;;5.05;;
22121;SDS011;11227;53.046;10.512;2022-12-10T16:34:26;9.18;;;4.85;;
22121;SDS011;11227;53.046;10.512;2022-12-10T16:38:28;9.85;;;4.93;;
22121;SDS011;11227;53.046;10.512;2022-12-10T16:42:29;8.10;;;4.78;;
22121;SDS011;11227;53.046;10.512;2022-12-10T16:46:31;9.55;;;4.88;;
22121;SDS011;11227;53.046;10.512;2022-12-10T16:50:33;10.75;;;4.80;;
22121;SDS011;11227;53.046;10.512;2022-12-10T16:54:36;8.88;;;4.60;;
22121;SDS011;11227;53.046;10.512;2022-12-10T16:58:37;9.70;;;4.97;;
22121;SDS011;11227;53.046;10.512;2022-12-10T17:02:39;9.68;;;5.18;;
22121;SDS011;11227;53.046;10.512;2022-12-10T17:06:41;9.45;;;4.80;;
22121;SDS011;11227;53.046;10.512;2022-12-10T17:10:43;6.47;;;3.83;;
22121;SDS011;11227;53.046;10.512;2022-12-10T17:15:04;7.20;;;4.40;;
22121;SDS011;11227;53.046;10.512;2022-12-10T17:19:08;8.80;;;4.70;;
22121;SDS011;11227;53.046;10.512;2022-12-10T17:23:12;7.47;;;4.28;;
22121;SDS011;11227;53.046;10.512;2022-12-10T17:27:15;10.20;;;4.90;;
22121;SDS011;11227;53.046;10.512;2022-12-10T17:31:20;7.20;;;4.13;;
22121;SDS011;11227;53.046;10.512;2022-12-10T17:35:21;7.82;;;4.60;;
22121;SDS011;11227;53.046;10.512;2022-12-10T17:39:23;8.77;;;4.65;;
22121;SDS011;11227;53.046;10.512;2022-12-10T17:43:29;6.20;;;4.35;;
22121;SDS011;11227;53.046;10.512;2022-12-10T17:47:31;10.27;;;4.50;;
22121;SDS011;11227;53.046;10.512;2022-12-10T17:51:33;8.85;;;4.80;;
22121;SDS011;11227;53.046;10.512;2022-12-10T17:55:35;7.50;;;4.78;;
22121;SDS011;11227;53.046;10.512;2022-12-10T17:59:37;5.45;;;3.60;;
22121;SDS011;11227;53.046;10.512;2022-12-10T18:03:43;6.53;;;4.25;;
22121;SDS011;11227;53.046;10.512;2022-12-10T18:07:45;5.72;;;3.55;;
22121;SDS011;11227;53.046;10.512;2022-12-10T18:11:47;7.10;;;4.43;;
22121;SDS011;11227;53.046;10.512;2022-12-10T18:15:50;6.95;;;4.25;;
22121;SDS011;11227;53.046;10.512;2022-12-10T18:19:52;9.98;;;4.47;;
22121;SDS011;11227;53.046;10.512;2022-12-10T18:23:54;8.05;;;4.45;;
22121;SDS011;11227;53.046;10.512;2022-12-10T18:27:57;8.20;;;4.10;;
22121;SDS011;11227;53.046;10.512;2022-12-10T18:32:03;8.43;;;3.85;;
22121;SDS011;11227;53.046;10.512;2022-12-10T18:36:05;5.28;;;3.85;;
22121;SDS011;11227;53.046;10.512;2022-12-10T18:40:17;7.00;;;4.30;;
22121;SDS011;11227;53.046;10.512;2022-12-10T18:44:22;7.25;;;4.25;;
22121;SDS011;11227;53.046;10.512;2022-12-10T18:48:26;98.18;;;11.30;;
22121;SDS011;11227;53.046;10.512;2022-12-10T18:52:28;52.83;;;7.03;;
22121;SDS011;11227;53.046;10.512;2022-12-10T18:56:29;39.25;;;7.50;;
22121;SDS011;11227;53.046;10.512;2022-12-10T19:00:33;27.67;;;5.78;;
22121;SDS011;11227;53.046;10.512;2022-12-10T19:04:36;27.30;;;6.30;;
22121;SDS011;11227;53.046;10.512;2022-12-10T19:08:38;26.17;;;6.57;;
22121;SDS011;11227;53.046;10.512;2022-12-10T19:13:00;25.38;;;7.88;;
22121;SDS011;11227;53.046;10.512;2022-12-10T19:17:01;31.77;;;6.15;;
22121;SDS011;11227;53.046;10.512;2022-12-10T19:21:03;22.02;;;5.75;;
22121;SDS011;11227;53.046;10.512;2022-12-10T19:25:05;28.63;;;5.43;;
22121;SDS011;11227;53.046;10.512;2022-12-10T19:29:12;13.75;;;5.32;;
22121;SDS011;11227;53.046;10.512;2022-12-10T19:33:15;16.67;;;5.55;;
22121;SDS011;11227;53.046;10.512;2022-12-10T19:37:17;21.42;;;7.07;;
22121;SDS011;11227;53.046;10.512;2022-12-10T19:41:18;12.30;;;5.15;;
22121;SDS011;11227;53.046;10.512;2022-12-10T19:45:21;16.63;;;5.55;;
22121;SDS011;11227;53.046;10.512;2022-12-10T19:49:23;14.20;;;5.53;;
22121;SDS011;11227;53.046;10.512;2022-12-10T19:53:24;15.40;;;5.95;;
22121;SDS011;11227;53.046;10.512;2022-12-10T19:57:26;13.02;;;5.28;;
22121;SDS011;11227;53.046;10.512;2022-12-10T20:01:28;17.27;;;5.50;;
22121;SDS011;11227;53.046;10.512;2022-12-10T20:05:30;12.80;;;5.53;;
22121;SDS011;11227;53.046;10.512;2022-12-10T20:09:32;14.68;;;5.30;;
22121;SDS011;11227;53.046;10.512;2022-12-10T20:13:33;11.18;;;5.05;;
22121;SDS011;11227;53.046;10.512;2022-12-10T20:17:35;12.75;;;5.30;;
22121;SDS011;11227;53.046;10.512;2022-12-10T20:21:37;9.95;;;5.22;;
22121;SDS011;11227;53.046;10.512;2022-12-10T20:25:39;8.68;;;5.05;;
22121;SDS011;11227;53.046;10.512;2022-12-10T20:29:45;9.43;;;4.68;;
22121;SDS011;11227;53.046;10.512;2022-12-10T20:33:46;10.15;;;5.15;;
22121;SDS011;11227;53.046;10.512;2022-12-10T20:37:49;11.05;;;4.65;;
22121;SDS011;11227;53.046;10.512;2022-12-10T20:41:51;9.20;;;4.72;;
22121;SDS011;11227;53.046;10.512;2022-12-10T20:45:53;8.93;;;4.40;;
22121;SDS011;11227;53.046;10.512;2022-12-10T20:49:55;8.57;;;5.20;;
22121;SDS011;11227;53.046;10.512;2022-12-10T20:53:56;8.60;;;4.22;;
22121;SDS011;11227;53.046;10.512;2022-12-10T20:57:58;12.73;;;4.43;;
22121;SDS011;11227;53.046;10.512;2022-12-10T21:02:00;10.55;;;4.43;;
22121;SDS011;11227;53.046;10.512;2022-12-10T21:06:03;8.00;;;5.05;;
22121;SDS011;11227;53.046;10.512;2022-12-10T21:10:06;12.32;;;4.50;;
22121;SDS011;11227;53.046;10.512;2022-12-10T21:14:32;9.40;;;4.57;;
22121;SDS011;11227;53.046;10.512;2022-12-10T21:18:54;9.50;;;4.60;;
22121;SDS011;11227;53.046;10.512;2022-12-10T21:22:56;8.00;;;4.50;;
22121;SDS011;11227;53.046;10.512;2022-12-10T21:26:57;9.68;;;4.40;;
22121;SDS011;11227;53.046;10.512;2022-12-10T21:30:59;10.45;;;4.82;;
22121;SDS011;11227;53.046;10.512;2022-12-10T21:35:01;8.13;;;4.60;;
22121;SDS011;11227;53.046;10.512;2022-12-10T21:39:03;10.02;;;5.20;;
22121;SDS011;11227;53.046;10.512;2022-12-10T21:43:06;9.35;;;4.43;;
22121;SDS011;11227;53.046;10.512;2022-12-10T21:47:17;8.77;;;5.25;;
22121;SDS011;11227;53.046;10.512;2022-12-10T21:51:19;8.68;;;4.68;;
22121;SDS011;11227;53.046;10.512;2022-12-10T21:55:21;8.32;;;4.43;;
22121;SDS011;11227;53.046;10.512;2022-12-10T21:59:30;7.30;;;4.13;;
22121;SDS011;11227;53.046;10.512;2022-12-10T22:03:32;8.00;;;4.57;;
22121;SDS011;11227;53.046;10.512;2022-12-10T22:07:34;6.35;;;4.18;;
22121;SDS011;11227;53.046;10.512;2022-12-10T22:11:37;8.57;;;4.30;;
22121;SDS011;11227;53.046;10.512;2022-12-10T22:15:39;6.15;;;4.22;;
22121;SDS011;11227;53.046;10.512;2022-12-10T22:19:41;5.97;;;4.32;;
22121;SDS011;11227;53.046;10.512;2022-12-10T22:23:43;9.85;;;3.75;;
22121;SDS011;11227;53.046;10.512;2022-12-10T22:27:44;6.28;;;4.03;;
22121;SDS011;11227;53.046;10.512;2022-12-10T22:31:46;6.50;;;4.55;;
22121;SDS011;11227;53.046;10.512;2022-12-10T22:35:48;8.77;;;4.88;;
22121;SDS011;11227;53.046;10.512;2022-12-10T22:39:50;6.28;;;3.85;;
22121;SDS011;11227;53.046;10.512;2022-12-10T22:43:51;8.05;;;4.25;;
22121;SDS011;11227;53.046;10.512;2022-12-10T22:47:53;7.22;;;4.25;;
22121;SDS011;11227;53.046;10.512;2022-12-10T22:51:55;6.00;;;4.10;;
22121;SDS011;11227;53.046;10.512;2022-12-10T22:56:00;5.93;;;3.67;;
22121;SDS011;11227;53.046;10.512;2022-12-10T23:00:08;5.72;;;3.78;;
22121;SDS011;11227;53.046;10.512;2022-12-10T23:04:13;9.25;;;3.95;;
22121;SDS011;11227;53.046;10.512;2022-12-10T23:08:14;7.13;;;4.38;;
22121;SDS011;11227;53.046;10.512;2022-12-10T23:12:16;7.53;;;3.90;;
22121;SDS011;11227;53.046;10.512;2022-12-10T23:16:37;7.47;;;4.00;;
22121;SDS011;11227;53.046;10.512;2022-12-10T23:20:39;7.93;;;3.83;;
22121;SDS011;11227;53.046;10.512;2022-12-10T23:24:49;5.18;;;3.75;;
22121;SDS011;11227;53.046;10.512;2022-12-10T23:28:51;6.35;;;3.85;;
22121;SDS011;11227;53.046;10.512;2022-12-10T23:32:53;5.97;;;3.47;;
22121;SDS011;11227;53.046;10.512;2022-12-10T23:36:55;5.85;;;3.58;;
22121;SDS011;11227;53.046;10.512;2022-12-10T23:40:56;5.07;;;3.45;;
22121;SDS011;11227;53.046;10.512;2022-12-10T23:44:58;5.20;;;3.65;;
22121;SDS011;11227;53.046;10.512;2022-12-10T23:49:00;6.47;;;3.72;;
22121;SDS011;11227;53.046;10.512;2022-12-10T23:53:02;8.57;;;3.35;;
22121;SDS011;11227;53.046;10.512;2022-12-10T23:57:05;7.25;;;3.75;;
